createdAt,value
2019-04-30T00:00:55.404Z,19.40
2019-04-30T00:03:28.362Z,21.40
2019-04-30T00:05:57.607Z,22.37
2019-04-30T00:08:30.167Z,23.27
2019-04-30T00:10:56.372Z,22.32
2019-04-30T00:13:25.864Z,23.35
2019-04-30T00:15:58.799Z,23.80
2019-04-30T00:18:25.491Z,30.27
2019-04-30T00:20:55.345Z,25.37
2019-04-30T00:23:29.309Z,24.37
2019-04-30T00:25:58.377Z,26.55
2019-04-30T00:28:25.525Z,26.48
2019-04-30T00:30:56.247Z,23.62
2019-04-30T00:33:27.477Z,24.50
2019-04-30T00:35:57.886Z,25.27
2019-04-30T00:38:29.420Z,29.82
2019-04-30T00:40:57.860Z,23.98
2019-04-30T00:43:27.271Z,24.95
2019-04-30T00:45:55.705Z,22.42
2019-04-30T00:48:27.926Z,19.95
2019-04-30T00:50:55.784Z,21.68
2019-04-30T00:53:26.202Z,25.30
2019-04-30T00:55:57.201Z,28.32
2019-04-30T00:58:30.058Z,26.50
2019-04-30T01:01:06.839Z,33.75
2019-04-30T01:03:35.231Z,29.07
2019-04-30T01:06:05.379Z,26.70
2019-04-30T01:08:35.832Z,28.20
2019-04-30T01:11:09.370Z,29.65
2019-04-30T01:13:35.828Z,30.43
2019-04-30T01:16:04.247Z,31.55
2019-04-30T01:18:32.682Z,28.73
2019-04-30T01:21:02.945Z,29.77
2019-04-30T01:23:31.550Z,29.00
2019-04-30T01:26:01.102Z,28.52
2019-04-30T01:28:30.151Z,32.95
2019-04-30T01:31:01.896Z,34.23
2019-04-30T01:33:34.512Z,24.72
2019-04-30T01:36:04.173Z,36.85
2019-04-30T01:38:30.666Z,34.08
2019-04-30T01:40:59.594Z,36.50
2019-04-30T01:43:33.119Z,29.50
2019-04-30T01:46:01.991Z,40.15
2019-04-30T01:48:29.253Z,41.75
2019-04-30T01:50:58.638Z,37.78
2019-04-30T01:53:28.567Z,34.53
2019-04-30T01:56:15.712Z,30.60
2019-04-30T01:58:45.846Z,38.92
2019-04-30T02:01:16.198Z,38.08
2019-04-30T02:03:44.880Z,32.13
2019-04-30T02:06:13.969Z,33.23
2019-04-30T02:08:42.584Z,35.83
2019-04-30T02:11:11.349Z,24.67
2019-04-30T02:13:39.801Z,33.60
2019-04-30T02:16:08.673Z,41.28
2019-04-30T02:18:39.289Z,37.35
2019-04-30T02:21:08.973Z,48.38
2019-04-30T02:23:39.240Z,46.60
2019-04-30T02:26:08.653Z,44.90
2019-04-30T02:28:37.233Z,43.52
2019-04-30T02:31:06.097Z,37.03
2019-04-30T02:33:36.930Z,45.67
2019-04-30T02:36:10.366Z,41.55
2019-04-30T02:38:40.037Z,51.25
2019-04-30T02:41:09.835Z,44.85
2019-04-30T02:43:42.134Z,39.00
2019-04-30T02:46:12.612Z,46.60
2019-04-30T02:48:42.201Z,44.33
2019-04-30T02:51:13.767Z,39.30
2019-04-30T02:53:50.996Z,44.18
2019-04-30T02:56:21.180Z,36.15
2019-04-30T02:58:50.546Z,45.35
2019-04-30T03:01:20.416Z,40.65
2019-04-30T03:03:50.055Z,54.27
2019-04-30T03:06:23.152Z,35.85
2019-04-30T03:08:51.130Z,51.75
2019-04-30T03:11:20.694Z,31.75
2019-04-30T03:13:49.847Z,39.33
2019-04-30T03:16:20.940Z,29.63
2019-04-30T03:18:54.271Z,34.08
2019-04-30T03:21:41.316Z,48.50
2019-04-30T03:24:11.238Z,39.95
2019-04-30T03:26:40.363Z,34.88
2019-04-30T03:29:11.320Z,51.28
2019-04-30T03:31:44.159Z,36.42
2019-04-30T03:34:12.376Z,37.67
2019-04-30T03:36:40.726Z,36.42
2019-04-30T03:39:11.033Z,39.85
2019-04-30T03:41:41.257Z,50.60
2019-04-30T03:44:20.922Z,46.28
2019-04-30T03:46:40.675Z,42.90
2019-04-30T03:49:12.655Z,60.78
2019-04-30T03:51:40.297Z,39.98
2019-04-30T03:54:10.032Z,40.40
2019-04-30T03:56:39.878Z,38.78
2019-04-30T03:59:10.476Z,52.30
2019-04-30T04:01:41.053Z,34.45
2019-04-30T04:04:11.436Z,32.35
2019-04-30T04:06:44.621Z,40.43
2019-04-30T04:09:22.037Z,35.78
2019-04-30T04:11:50.876Z,41.45
2019-04-30T04:14:19.827Z,35.23
2019-04-30T04:16:50.949Z,33.08
2019-04-30T04:19:19.699Z,32.85
2019-04-30T04:21:50.754Z,26.50
2019-04-30T04:24:20.419Z,29.98
2019-04-30T04:26:50.174Z,29.07
2019-04-30T04:29:19.647Z,25.97
2019-04-30T04:31:50.097Z,23.80
2019-04-30T04:34:19.715Z,25.37
2019-04-30T04:36:50.628Z,27.30
2019-04-30T04:39:20.238Z,20.95
2019-04-30T04:41:50.280Z,19.20
2019-04-30T04:44:20.322Z,19.05
2019-04-30T04:46:50.393Z,20.77
2019-04-30T04:49:20.762Z,17.25
2019-04-30T04:51:49.399Z,16.82
2019-04-30T04:54:19.945Z,14.90
2019-04-30T04:56:52.984Z,15.78
2019-04-30T04:59:20.118Z,16.62
2019-04-30T05:01:49.070Z,14.13
2019-04-30T05:04:19.983Z,12.23
2019-04-30T05:06:49.819Z,15.32
2019-04-30T05:09:19.501Z,14.75
2019-04-30T05:11:48.729Z,13.68
2019-04-30T05:14:18.989Z,14.20
2019-04-30T05:16:50.309Z,14.78
2019-04-30T05:19:18.830Z,14.75
2019-04-30T05:21:51.498Z,15.40
2019-04-30T05:24:19.002Z,12.07
2019-04-30T05:26:49.907Z,12.55
2019-04-30T05:29:19.053Z,12.13
2019-04-30T05:31:48.571Z,9.63
2019-04-30T05:34:18.841Z,13.28
2019-04-30T05:36:48.974Z,14.03
2019-04-30T05:39:18.873Z,13.68
2019-04-30T05:41:49.206Z,11.60
2019-04-30T05:44:18.496Z,11.50
2019-04-30T05:46:47.087Z,11.57
2019-04-30T05:49:15.868Z,17.80
2019-04-30T05:51:53.516Z,12.53
2019-04-30T05:54:14.988Z,11.28
2019-04-30T05:56:43.418Z,10.82
2019-04-30T05:59:12.162Z,9.75
2019-04-30T06:01:47.871Z,12.60
2019-04-30T06:04:11.289Z,11.65
2019-04-30T06:06:40.606Z,12.28
2019-04-30T06:09:31.670Z,9.95
2019-04-30T06:12:09.467Z,10.28
2019-04-30T06:14:48.973Z,14.90
2019-04-30T06:17:13.729Z,12.98
2019-04-30T06:19:42.233Z,12.33
2019-04-30T06:22:11.250Z,12.47
2019-04-30T06:25:03.147Z,11.15
2019-04-30T06:27:31.808Z,10.18
2019-04-30T06:30:00.524Z,12.68
2019-04-30T06:32:29.615Z,9.70
2019-04-30T06:34:59.284Z,8.78
2019-04-30T06:37:28.816Z,12.43
2019-04-30T06:39:59.164Z,11.30
2019-04-30T06:42:29.324Z,9.58
2019-04-30T06:44:59.110Z,8.65
2019-04-30T06:47:33.245Z,8.98
2019-04-30T06:49:58.746Z,10.00
2019-04-30T06:52:29.354Z,11.93
2019-04-30T06:54:59.589Z,13.45
2019-04-30T06:57:29.509Z,12.82
2019-04-30T06:59:59.598Z,9.38
2019-04-30T07:02:30.620Z,12.20
2019-04-30T07:04:58.804Z,10.25
2019-04-30T07:07:37.066Z,14.70
2019-04-30T07:10:01.339Z,12.70
2019-04-30T07:12:40.336Z,18.42
2019-04-30T07:15:09.461Z,10.48
2019-04-30T07:17:40.537Z,11.48
2019-04-30T07:20:10.457Z,18.55
2019-04-30T07:25:09.611Z,12.75
2019-04-30T07:27:40.171Z,13.95
2019-04-30T07:30:09.934Z,15.93
2019-04-30T07:32:39.011Z,11.70
2019-04-30T07:35:09.495Z,12.53
2019-04-30T07:37:39.159Z,16.27
2019-04-30T07:40:09.134Z,11.93
2019-04-30T07:42:44.114Z,10.45
2019-04-30T07:45:09.699Z,13.15
2019-04-30T07:47:39.555Z,13.03
2019-04-30T07:50:10.731Z,12.33
2019-04-30T07:52:58.014Z,14.15
2019-04-30T07:55:09.769Z,12.13
2019-04-30T07:57:40.380Z,14.35
2019-04-30T08:00:09.809Z,13.75
2019-04-30T08:02:43.523Z,15.25
2019-04-30T08:05:12.460Z,15.85
2019-04-30T08:07:40.936Z,14.93
2019-04-30T08:09:34.154Z,11.00
2019-04-30T08:10:09.576Z,16.70
2019-04-30T08:12:42.636Z,15.80
2019-04-30T08:15:09.668Z,14.10
2019-04-30T08:17:38.899Z,15.50
2019-04-30T08:20:08.754Z,14.63
2019-04-30T08:22:40.887Z,15.90
2019-04-30T08:25:09.708Z,15.93
2019-04-30T08:27:39.244Z,17.90
2019-04-30T08:30:21.377Z,16.15
2019-04-30T08:32:39.248Z,18.05
2019-04-30T08:35:09.904Z,20.02
2019-04-30T08:37:38.646Z,17.00
2019-04-30T08:40:08.659Z,18.12
2019-04-30T08:42:40.213Z,18.17
2019-04-30T08:45:09.515Z,20.65
2019-04-30T08:47:39.300Z,19.65
2019-04-30T08:50:09.733Z,21.10
2019-04-30T08:52:39.424Z,20.97
2019-04-30T08:55:14.131Z,21.40
2019-04-30T08:57:39.565Z,22.32
2019-04-30T09:00:09.225Z,20.95
2019-04-30T09:02:39.535Z,21.87
2019-04-30T09:05:10.060Z,19.95
2019-04-30T09:07:38.828Z,22.10
2019-04-30T09:10:29.271Z,20.27
2019-04-30T09:12:59.595Z,20.92
2019-04-30T09:15:29.076Z,21.00
2019-04-30T09:18:03.086Z,21.05
2019-04-30T09:20:29.174Z,21.25
2019-04-30T09:22:59.551Z,20.25
2019-04-30T09:25:28.687Z,20.85
2019-04-30T09:27:58.856Z,23.35
2019-04-30T09:30:29.774Z,22.77
2019-04-30T09:32:59.527Z,22.42
2019-04-30T09:35:30.123Z,21.80
2019-04-30T09:38:01.648Z,23.42
2019-04-30T09:40:32.259Z,23.45
2019-04-30T09:43:00.450Z,24.65
2019-04-30T09:45:29.100Z,22.65
2019-04-30T09:47:59.230Z,23.30
2019-04-30T09:50:29.000Z,22.45
2019-04-30T09:53:00.331Z,24.63
2019-04-30T09:55:29.062Z,24.70
2019-04-30T09:57:58.904Z,20.88
2019-04-30T10:00:29.526Z,21.02
2019-04-30T10:02:59.880Z,21.57
2019-04-30T10:05:29.361Z,22.87
2019-04-30T10:07:59.374Z,21.23
2019-04-30T10:10:29.640Z,21.87
2019-04-30T10:12:59.248Z,21.93
2019-04-30T10:15:45.805Z,24.45
2019-04-30T10:18:14.428Z,23.15
2019-04-30T10:20:44.449Z,23.05
2019-04-30T10:23:13.240Z,22.85
2019-04-30T10:25:42.032Z,22.82
2019-04-30T10:28:10.822Z,22.60
2019-04-30T10:30:42.168Z,23.00
2019-04-30T10:33:10.629Z,22.10
2019-04-30T10:35:39.078Z,24.27
2019-04-30T10:38:09.713Z,22.32
2019-04-30T10:40:39.010Z,23.35
2019-04-30T10:43:08.852Z,22.82
2019-04-30T10:45:39.077Z,23.15
2019-04-30T10:48:08.129Z,22.48
2019-04-30T10:50:36.582Z,21.27
2019-04-30T10:53:05.296Z,24.12
2019-04-30T10:55:34.158Z,22.50
2019-04-30T10:58:02.695Z,21.00
2019-04-30T11:01:01.774Z,21.12
2019-04-30T11:03:29.950Z,23.00
2019-04-30T11:05:58.832Z,21.95
2019-04-30T11:08:27.279Z,21.00
2019-04-30T11:11:17.971Z,21.75
2019-04-30T11:13:49.057Z,22.20
2019-04-30T11:16:18.883Z,22.22
2019-04-30T11:18:47.651Z,22.30
2019-04-30T11:21:16.845Z,22.70
2019-04-30T11:23:45.976Z,22.00
2019-04-30T11:26:16.025Z,22.40
2019-04-30T11:28:45.469Z,23.70
2019-04-30T11:31:16.107Z,22.73
2019-04-30T11:33:45.288Z,23.32
2019-04-30T11:36:14.080Z,24.05
2019-04-30T11:38:42.520Z,23.65
2019-04-30T11:41:11.132Z,24.25
2019-04-30T11:43:39.948Z,25.08
2019-04-30T11:46:28.563Z,22.98
2019-04-30T11:48:58.566Z,23.70
2019-04-30T11:51:27.180Z,25.27
2019-04-30T11:53:59.217Z,23.75
2019-04-30T11:56:27.690Z,24.15
2019-04-30T11:58:56.263Z,25.00
2019-04-30T12:01:26.351Z,25.60
2019-04-30T12:03:54.793Z,27.75
2019-04-30T12:06:23.578Z,27.77
2019-04-30T12:08:59.649Z,27.15
2019-04-30T12:11:29.723Z,29.20
2019-04-30T12:13:58.480Z,27.05
2019-04-30T12:16:28.550Z,28.47
2019-04-30T12:19:00.443Z,29.82
2019-04-30T12:21:27.671Z,29.00
2019-04-30T12:23:56.185Z,28.90
2019-04-30T12:26:45.476Z,31.07
2019-04-30T12:29:13.920Z,32.17
2019-04-30T12:31:42.712Z,32.93
2019-04-30T12:34:11.160Z,31.97
2019-04-30T12:36:39.604Z,30.65
2019-04-30T12:39:09.705Z,31.93
2019-04-30T12:41:39.006Z,32.67
2019-04-30T12:44:08.517Z,33.38
2019-04-30T12:46:38.737Z,31.35
2019-04-30T12:49:10.202Z,32.73
2019-04-30T12:51:45.992Z,33.33
2019-04-30T12:54:15.784Z,30.88
2019-04-30T12:57:04.090Z,31.80
2019-04-30T12:59:32.884Z,31.62
2019-04-30T13:02:01.332Z,31.02
2019-04-30T13:04:30.170Z,28.92
2019-04-30T13:07:01.608Z,29.35
2019-04-30T13:09:30.261Z,30.35
2019-04-30T13:12:00.571Z,29.57
2019-04-30T13:14:30.676Z,29.02
2019-04-30T13:16:59.751Z,31.05
2019-04-30T13:19:47.567Z,29.30
2019-04-30T13:22:16.272Z,29.10
2019-04-30T13:24:44.789Z,30.57
2019-04-30T13:27:13.553Z,29.75
2019-04-30T13:29:55.536Z,28.75
2019-04-30T13:32:30.168Z,26.93
2019-04-30T13:34:55.784Z,25.60
2019-04-30T13:37:24.292Z,26.68
2019-04-30T13:40:12.671Z,26.12
2019-04-30T13:42:42.816Z,24.82
2019-04-30T13:45:11.603Z,23.85
2019-04-30T13:47:40.031Z,23.00
2019-04-30T13:50:29.211Z,22.87
2019-04-30T13:52:58.817Z,21.85
2019-04-30T13:55:30.544Z,20.77
2019-04-30T13:57:57.834Z,22.98
2019-04-30T14:00:29.666Z,22.70
2019-04-30T14:03:03.194Z,22.13
2019-04-30T14:05:31.992Z,19.52
2019-04-30T14:08:17.196Z,16.30
2019-04-30T14:10:46.091Z,15.63
2019-04-30T14:13:14.841Z,12.18
2019-04-30T14:15:44.561Z,13.08
2019-04-30T14:18:13.528Z,12.13
2019-04-30T14:20:42.308Z,13.00
2019-04-30T14:23:10.853Z,13.83
2019-04-30T14:25:39.340Z,12.98
2019-04-30T14:28:09.430Z,13.53
2019-04-30T14:30:39.256Z,15.38
2019-04-30T14:33:09.487Z,13.58
2019-04-30T14:35:38.678Z,14.35
2019-04-30T14:38:09.018Z,14.07
2019-04-30T14:40:39.961Z,14.18
2019-04-30T14:43:29.867Z,16.02
2019-04-30T14:46:11.863Z,14.55
2019-04-30T14:51:35.972Z,15.23
2019-04-30T14:54:06.608Z,12.35
2019-04-30T14:56:39.909Z,12.25
2019-04-30T14:59:26.024Z,13.03
2019-04-30T15:02:02.057Z,17.02
2019-04-30T15:04:30.841Z,12.05
2019-04-30T15:06:59.416Z,13.22
2019-04-30T15:09:28.216Z,17.48
2019-04-30T15:11:58.550Z,15.25
2019-04-30T15:14:27.137Z,13.22
2019-04-30T15:16:55.930Z,14.87
2019-04-30T15:19:24.619Z,13.62
2019-04-30T15:21:53.408Z,14.93
2019-04-30T15:24:23.484Z,16.52
2019-04-30T15:26:57.727Z,14.93
2019-04-30T15:29:22.354Z,14.38
2019-04-30T15:31:50.805Z,14.53
2019-04-30T15:34:19.411Z,14.13
2019-04-30T15:36:49.270Z,14.15
2019-04-30T15:39:32.157Z,16.62
2019-04-30T15:42:00.671Z,16.00
2019-04-30T15:44:29.344Z,16.85
2019-04-30T15:47:00.346Z,15.35
2019-04-30T15:49:28.353Z,14.53
2019-04-30T15:51:57.141Z,19.02
2019-04-30T15:54:25.931Z,14.87
2019-04-30T15:56:54.789Z,15.60
2019-04-30T15:59:30.750Z,18.62
2019-04-30T16:02:09.897Z,16.77
2019-04-30T16:04:56.628Z,17.95
2019-04-30T16:07:25.064Z,14.35
2019-04-30T16:10:00.848Z,18.60
2019-04-30T16:12:31.174Z,16.93
2019-04-30T16:14:59.632Z,18.52
2019-04-30T16:17:29.194Z,17.20
2019-04-30T16:19:58.062Z,17.40
2019-04-30T16:22:29.073Z,17.52
2019-04-30T16:25:00.481Z,17.85
2019-04-30T16:27:28.544Z,19.60
2019-04-30T16:29:57.057Z,15.72
2019-04-30T16:32:25.491Z,16.95
2019-04-30T16:34:54.288Z,20.00
2019-04-30T16:37:22.727Z,19.02
2019-04-30T16:39:51.204Z,15.40
2019-04-30T16:42:19.642Z,15.50
2019-04-30T16:44:48.094Z,15.60
2019-04-30T16:47:17.130Z,15.63
2019-04-30T16:49:45.772Z,17.17
2019-04-30T16:52:14.620Z,16.75
2019-04-30T16:54:43.068Z,19.07
2019-04-30T16:57:11.525Z,16.75
2019-04-30T16:59:41.722Z,16.50
2019-04-30T17:02:10.708Z,16.15
2019-04-30T17:04:46.408Z,19.48
2019-04-30T17:07:34.812Z,17.15
2019-04-30T17:10:20.450Z,18.30
2019-04-30T17:12:51.509Z,16.10
2019-04-30T17:15:22.044Z,15.88
2019-04-30T17:17:51.657Z,15.50
2019-04-30T17:20:20.863Z,17.57
2019-04-30T17:22:49.859Z,16.27
2019-04-30T17:25:18.888Z,15.98
2019-04-30T17:27:47.505Z,16.52
2019-04-30T17:30:16.379Z,15.65
2019-04-30T17:32:45.233Z,15.23
2019-04-30T17:35:13.808Z,16.93
2019-04-30T17:37:43.844Z,19.95
2019-04-30T17:40:13.040Z,15.78
2019-04-30T17:42:41.475Z,16.65
2019-04-30T17:45:10.256Z,16.90
2019-04-30T17:47:39.017Z,17.32
2019-04-30T17:50:09.083Z,17.00
2019-04-30T17:52:37.549Z,17.37
2019-04-30T17:55:09.465Z,16.25
2019-04-30T17:57:40.047Z,16.52
2019-04-30T18:00:18.701Z,16.85
2019-04-30T18:02:40.943Z,16.95
2019-04-30T18:05:11.354Z,17.80
2019-04-30T18:07:40.067Z,16.90
2019-04-30T18:10:10.932Z,16.57
2019-04-30T18:12:39.727Z,16.77
2019-04-30T18:15:14.889Z,16.57
2019-04-30T18:17:44.983Z,19.75
2019-04-30T18:20:19.151Z,18.95
2019-04-30T18:22:55.925Z,23.75
2019-04-30T18:25:29.072Z,18.02
2019-04-30T18:28:02.420Z,18.73
2019-04-30T18:30:32.799Z,17.30
2019-04-30T18:33:01.264Z,19.82
2019-04-30T18:35:29.696Z,23.40
2019-04-30T18:37:58.661Z,21.50
2019-04-30T18:40:29.470Z,22.75
2019-04-30T18:42:59.339Z,23.75
2019-04-30T18:45:28.854Z,26.07
2019-04-30T18:47:59.432Z,24.27
2019-04-30T18:50:28.868Z,25.17
2019-04-30T18:52:59.373Z,25.30
2019-04-30T18:55:27.847Z,26.40
2019-04-30T18:57:59.167Z,22.98
2019-04-30T19:00:29.423Z,24.92
2019-04-30T19:02:58.622Z,22.90
2019-04-30T19:05:30.955Z,24.45
2019-04-30T19:11:13.756Z,25.48
2019-04-30T19:14:00.059Z,19.82
2019-04-30T19:16:30.464Z,20.95
2019-04-30T19:19:12.460Z,19.95
2019-04-30T19:21:59.186Z,21.02
2019-04-30T19:24:27.623Z,20.65
2019-04-30T19:26:56.097Z,19.37
2019-04-30T19:29:24.817Z,18.85
2019-04-30T19:31:53.613Z,21.52
2019-04-30T19:34:22.500Z,21.50
2019-04-30T19:36:50.947Z,18.67
2019-04-30T19:39:19.949Z,22.00
2019-04-30T19:41:49.012Z,17.40
2019-04-30T19:44:20.659Z,19.20
2019-04-30T19:46:48.770Z,15.65
2019-04-30T19:49:19.306Z,18.62
2019-04-30T19:51:49.512Z,15.72
2019-04-30T19:54:19.261Z,15.10
2019-04-30T19:56:50.082Z,15.75
2019-04-30T19:59:19.328Z,17.73
2019-04-30T20:01:48.848Z,19.70
2019-04-30T20:04:18.542Z,20.82
2019-04-30T20:06:48.730Z,19.17
2019-04-30T20:09:19.297Z,17.57
2019-04-30T20:11:49.252Z,18.37
2019-04-30T20:14:18.674Z,17.60
2019-04-30T20:16:48.676Z,18.00
2019-04-30T20:19:17.275Z,18.23
2019-04-30T20:21:53.068Z,18.32
2019-04-30T20:24:16.160Z,18.82
2019-04-30T20:26:44.970Z,17.50
2019-04-30T20:29:13.652Z,18.23
2019-04-30T20:31:42.437Z,18.15
2019-04-30T20:34:10.876Z,16.62
2019-04-30T20:36:39.412Z,16.90
2019-04-30T20:39:16.039Z,16.93
2019-04-30T20:41:44.637Z,18.32
2019-04-30T20:44:13.456Z,18.57
2019-04-30T20:46:42.970Z,17.42
2019-04-30T20:49:11.772Z,18.87
2019-04-30T20:51:52.613Z,19.52
2019-04-30T20:54:11.004Z,17.48
2019-04-30T20:56:39.771Z,18.77
2019-04-30T20:59:10.687Z,18.92
2019-04-30T21:01:39.298Z,20.57
2019-04-30T21:04:07.812Z,18.77
2019-04-30T21:06:36.249Z,18.10
2019-04-30T21:09:05.942Z,19.02
2019-04-30T21:11:34.674Z,18.25
2019-04-30T21:14:03.568Z,23.22
2019-04-30T21:16:33.315Z,24.32
2019-04-30T21:19:02.072Z,22.25
2019-04-30T21:21:49.884Z,20.92
2019-04-30T21:24:18.377Z,21.27
2019-04-30T21:26:46.896Z,22.48
2019-04-30T21:29:16.062Z,26.93
2019-04-30T21:31:49.289Z,28.98
2019-04-30T21:34:19.627Z,24.87
2019-04-30T21:36:49.596Z,25.43
2019-04-30T21:39:19.987Z,24.45
2019-04-30T21:41:49.436Z,25.27
2019-04-30T21:44:18.160Z,28.90
2019-04-30T21:46:46.998Z,26.82
2019-04-30T21:49:15.724Z,28.12
2019-04-30T21:51:44.440Z,28.10
2019-04-30T21:54:12.893Z,31.57
2019-04-30T21:56:41.319Z,32.15
2019-04-30T21:59:09.869Z,32.20
2019-04-30T22:01:38.580Z,34.45
2019-04-30T22:04:08.324Z,36.98
2019-04-30T22:06:36.754Z,35.90
2019-04-30T22:09:07.232Z,37.98
2019-04-30T22:11:35.674Z,35.10
2019-04-30T22:14:06.308Z,35.68
2019-04-30T22:16:54.105Z,37.40
2019-04-30T22:19:22.541Z,38.38
2019-04-30T22:21:50.992Z,38.33
2019-04-30T22:24:19.459Z,39.03
2019-04-30T22:26:49.104Z,41.70
2019-04-30T22:29:19.148Z,39.35
2019-04-30T22:31:49.489Z,36.95
2019-04-30T22:34:19.012Z,40.48
2019-04-30T22:36:48.824Z,42.03
2019-04-30T22:39:21.521Z,41.30
2019-04-30T22:41:50.250Z,42.80
2019-04-30T22:44:18.675Z,43.28
2019-04-30T22:46:49.155Z,40.90
2019-04-30T22:49:17.755Z,40.95
2019-04-30T22:51:46.338Z,45.35
2019-04-30T22:54:15.129Z,45.65
2019-04-30T22:56:43.575Z,44.25
2019-04-30T22:59:12.005Z,49.50
2019-04-30T23:01:57.160Z,44.30
2019-04-30T23:04:35.648Z,45.60
2019-04-30T23:07:04.269Z,49.25
2019-04-30T23:09:32.714Z,46.90
2019-04-30T23:12:03.520Z,46.28
2019-04-30T23:14:32.281Z,46.98
2019-04-30T23:17:01.069Z,48.78
2019-04-30T23:19:29.576Z,46.08
2019-04-30T23:21:59.942Z,47.93
2019-04-30T23:24:28.785Z,47.40
2019-04-30T23:26:57.292Z,49.05
2019-04-30T23:29:25.743Z,50.90
2019-04-30T23:31:54.181Z,46.28
2019-04-30T23:34:22.636Z,50.98
2019-04-30T23:36:51.408Z,48.73
2019-04-30T23:39:19.852Z,49.25
2019-04-30T23:41:48.542Z,47.83
2019-04-30T23:44:18.400Z,48.58
2019-04-30T23:46:47.196Z,50.60
2019-04-30T23:49:34.961Z,50.67
2019-04-30T23:52:03.407Z,50.92
2019-04-30T23:54:32.758Z,50.78
2019-04-30T23:57:01.199Z,50.75
2019-04-30T23:59:29.656Z,49.70
